sensor_id;sensor_type;location;lat;lon;timestamp;temperature;humidity
32201;DHT22;18701;45.588;5.288;2023-11-19T00:02:08;8.10;99.90
32201;DHT22;18701;45.588;5.288;2023-11-19T00:04:38;8.10;99.90
32201;DHT22;18701;45.588;5.288;2023-11-19T00:07:06;8.10;99.90
32201;DHT22;18701;45.588;5.288;2023-11-19T00:09:33;8.10;99.90
32201;DHT22;18701;45.588;5.288;2023-11-19T00:12:02;8.10;99.90
32201;DHT22;18701;45.588;5.288;2023-11-19T00:14:28;8.10;99.90
32201;DHT22;18701;45.588;5.288;2023-11-19T00:16:54;8.20;99.90
32201;DHT22;18701;45.588;5.288;2023-11-19T00:19:20;8.30;99.90
32201;DHT22;18701;45.588;5.288;2023-11-19T00:21:45;8.30;99.90
32201;DHT22;18701;45.588;5.288;2023-11-19T00:24:11;8.30;99.90
32201;DHT22;18701;45.588;5.288;2023-11-19T00:26:40;8.30;99.90
32201;DHT22;18701;45.588;5.288;2023-11-19T00:29:07;8.40;99.90
32201;DHT22;18701;45.588;5.288;2023-11-19T00:31:32;8.40;99.90
32201;DHT22;18701;45.588;5.288;2023-11-19T00:33:58;8.40;99.90
32201;DHT22;18701;45.588;5.288;2023-11-19T00:36:24;8.40;99.90
32201;DHT22;18701;45.588;5.288;2023-11-19T00:38:51;8.40;99.90
32201;DHT22;18701;45.588;5.288;2023-11-19T00:41:18;8.40;99.90
32201;DHT22;18701;45.588;5.288;2023-11-19T00:43:44;8.40;99.90
32201;DHT22;18701;45.588;5.288;2023-11-19T00:46:09;8.40;99.90
32201;DHT22;18701;45.588;5.288;2023-11-19T00:48:36;8.20;99.90
32201;DHT22;18701;45.588;5.288;2023-11-19T00:51:02;8.30;99.90
32201;DHT22;18701;45.588;5.288;2023-11-19T00:53:29;8.20;99.90
32201;DHT22;18701;45.588;5.288;2023-11-19T00:55:55;8.10;99.90
32201;DHT22;18701;45.588;5.288;2023-11-19T00:58:20;8.20;99.90
32201;DHT22;18701;45.588;5.288;2023-11-19T01:00:46;8.20;99.90
32201;DHT22;18701;45.588;5.288;2023-11-19T01:03:12;8.20;99.90
32201;DHT22;18701;45.588;5.288;2023-11-19T01:05:38;8.10;99.90
32201;DHT22;18701;45.588;5.288;2023-11-19T01:08:04;8.10;99.90
32201;DHT22;18701;45.588;5.288;2023-11-19T01:10:30;8.10;99.90
32201;DHT22;18701;45.588;5.288;2023-11-19T01:12:56;8.10;99.90
32201;DHT22;18701;45.588;5.288;2023-11-19T01:15:22;8.20;99.90
32201;DHT22;18701;45.588;5.288;2023-11-19T01:17:48;8.20;99.90
32201;DHT22;18701;45.588;5.288;2023-11-19T01:20:14;8.20;99.90
32201;DHT22;18701;45.588;5.288;2023-11-19T01:22:40;8.10;99.90
32201;DHT22;18701;45.588;5.288;2023-11-19T01:25:06;8.00;99.90
32201;DHT22;18701;45.588;5.288;2023-11-19T01:27:32;8.10;99.90
32201;DHT22;18701;45.588;5.288;2023-11-19T01:30:00;8.00;99.90
32201;DHT22;18701;45.588;5.288;2023-11-19T01:32:29;8.10;99.90
32201;DHT22;18701;45.588;5.288;2023-11-19T01:34:55;8.10;99.90
32201;DHT22;18701;45.588;5.288;2023-11-19T01:37:20;8.10;99.90
32201;DHT22;18701;45.588;5.288;2023-11-19T01:39:46;8.10;99.90
32201;DHT22;18701;45.588;5.288;2023-11-19T01:42:12;8.20;99.90
32201;DHT22;18701;45.588;5.288;2023-11-19T01:44:38;8.20;99.90
32201;DHT22;18701;45.588;5.288;2023-11-19T01:47:03;8.10;99.90
32201;DHT22;18701;45.588;5.288;2023-11-19T01:49:31;8.10;99.90
32201;DHT22;18701;45.588;5.288;2023-11-19T01:51:57;8.10;99.90
32201;DHT22;18701;45.588;5.288;2023-11-19T01:54:24;8.20;99.90
32201;DHT22;18701;45.588;5.288;2023-11-19T01:56:49;8.20;99.90
32201;DHT22;18701;45.588;5.288;2023-11-19T01:59:16;8.30;99.90
32201;DHT22;18701;45.588;5.288;2023-11-19T02:01:42;8.20;99.90
32201;DHT22;18701;45.588;5.288;2023-11-19T02:04:08;8.20;99.90
32201;DHT22;18701;45.588;5.288;2023-11-19T02:06:35;8.20;99.90
32201;DHT22;18701;45.588;5.288;2023-11-19T02:09:02;8.10;99.90
32201;DHT22;18701;45.588;5.288;2023-11-19T02:11:33;8.20;99.90
32201;DHT22;18701;45.588;5.288;2023-11-19T02:14:00;8.20;99.90
32201;DHT22;18701;45.588;5.288;2023-11-19T02:16:26;8.20;99.90
32201;DHT22;18701;45.588;5.288;2023-11-19T02:18:51;8.30;99.90
32201;DHT22;18701;45.588;5.288;2023-11-19T02:21:17;8.30;99.90
32201;DHT22;18701;45.588;5.288;2023-11-19T02:23:43;8.20;99.90
32201;DHT22;18701;45.588;5.288;2023-11-19T02:26:19;8.20;99.90
32201;DHT22;18701;45.588;5.288;2023-11-19T02:28:48;8.40;99.90
32201;DHT22;18701;45.588;5.288;2023-11-19T02:31:14;8.40;99.90
32201;DHT22;18701;45.588;5.288;2023-11-19T02:33:40;8.50;99.90
32201;DHT22;18701;45.588;5.288;2023-11-19T02:36:07;8.50;99.90
32201;DHT22;18701;45.588;5.288;2023-11-19T02:38:33;8.40;99.90
32201;DHT22;18701;45.588;5.288;2023-11-19T02:41:00;8.50;99.90
32201;DHT22;18701;45.588;5.288;2023-11-19T02:43:30;8.40;99.90
32201;DHT22;18701;45.588;5.288;2023-11-19T02:45:57;8.40;99.90
32201;DHT22;18701;45.588;5.288;2023-11-19T02:48:22;8.50;99.90
32201;DHT22;18701;45.588;5.288;2023-11-19T02:50:48;8.50;99.90
32201;DHT22;18701;45.588;5.288;2023-11-19T02:53:14;8.60;99.90
32201;DHT22;18701;45.588;5.288;2023-11-19T02:55:39;8.60;99.90
32201;DHT22;18701;45.588;5.288;2023-11-19T02:58:06;8.60;99.90
32201;DHT22;18701;45.588;5.288;2023-11-19T03:00:45;8.70;99.90
32201;DHT22;18701;45.588;5.288;2023-11-19T03:03:23;8.70;99.90
32201;DHT22;18701;45.588;5.288;2023-11-19T03:05:54;8.60;99.90
32201;DHT22;18701;45.588;5.288;2023-11-19T03:08:20;8.60;99.90
32201;DHT22;18701;45.588;5.288;2023-11-19T03:10:46;8.70;99.90
32201;DHT22;18701;45.588;5.288;2023-11-19T03:13:14;8.60;99.90
32201;DHT22;18701;45.588;5.288;2023-11-19T03:15:40;8.60;99.90
32201;DHT22;18701;45.588;5.288;2023-11-19T03:18:06;8.60;99.90
32201;DHT22;18701;45.588;5.288;2023-11-19T03:20:32;8.70;99.90
32201;DHT22;18701;45.588;5.288;2023-11-19T03:22:57;8.70;99.90
32201;DHT22;18701;45.588;5.288;2023-11-19T03:25:26;8.60;99.90
32201;DHT22;18701;45.588;5.288;2023-11-19T03:27:52;8.70;99.90
32201;DHT22;18701;45.588;5.288;2023-11-19T03:30:18;8.60;99.90
32201;DHT22;18701;45.588;5.288;2023-11-19T03:32:46;8.70;99.90
32201;DHT22;18701;45.588;5.288;2023-11-19T03:35:12;8.70;99.90
32201;DHT22;18701;45.588;5.288;2023-11-19T03:37:37;8.70;99.90
32201;DHT22;18701;45.588;5.288;2023-11-19T03:40:05;8.80;99.90
32201;DHT22;18701;45.588;5.288;2023-11-19T03:42:31;8.70;99.90
32201;DHT22;18701;45.588;5.288;2023-11-19T03:44:57;8.80;99.90
32201;DHT22;18701;45.588;5.288;2023-11-19T03:47:23;8.80;99.90
32201;DHT22;18701;45.588;5.288;2023-11-19T03:49:49;8.80;99.90
32201;DHT22;18701;45.588;5.288;2023-11-19T03:52:15;8.80;99.90
32201;DHT22;18701;45.588;5.288;2023-11-19T03:54:41;8.80;99.90
32201;DHT22;18701;45.588;5.288;2023-11-19T03:57:06;8.80;99.90
32201;DHT22;18701;45.588;5.288;2023-11-19T03:59:32;8.90;99.90
32201;DHT22;18701;45.588;5.288;2023-11-19T04:01:59;8.90;99.90
32201;DHT22;18701;45.588;5.288;2023-11-19T04:04:26;8.90;99.90
32201;DHT22;18701;45.588;5.288;2023-11-19T04:06:53;8.80;99.90
32201;DHT22;18701;45.588;5.288;2023-11-19T04:09:18;8.90;99.90
32201;DHT22;18701;45.588;5.288;2023-11-19T04:11:44;8.90;99.90
32201;DHT22;18701;45.588;5.288;2023-11-19T04:14:15;8.90;99.90
32201;DHT22;18701;45.588;5.288;2023-11-19T04:16:43;8.90;99.90
32201;DHT22;18701;45.588;5.288;2023-11-19T04:19:10;8.80;99.90
32201;DHT22;18701;45.588;5.288;2023-11-19T04:21:35;8.90;99.90
32201;DHT22;18701;45.588;5.288;2023-11-19T04:24:01;8.90;99.90
32201;DHT22;18701;45.588;5.288;2023-11-19T04:26:27;8.90;99.90
32201;DHT22;18701;45.588;5.288;2023-11-19T04:28:52;8.90;99.90
32201;DHT22;18701;45.588;5.288;2023-11-19T04:31:18;8.90;99.90
32201;DHT22;18701;45.588;5.288;2023-11-19T04:33:43;9.00;99.90
32201;DHT22;18701;45.588;5.288;2023-11-19T04:36:10;9.00;99.90
32201;DHT22;18701;45.588;5.288;2023-11-19T04:38:36;8.90;99.90
32201;DHT22;18701;45.588;5.288;2023-11-19T04:41:04;8.90;99.90
32201;DHT22;18701;45.588;5.288;2023-11-19T04:43:31;9.00;99.90
32201;DHT22;18701;45.588;5.288;2023-11-19T04:45:56;9.00;99.90
32201;DHT22;18701;45.588;5.288;2023-11-19T04:48:23;8.90;99.90
32201;DHT22;18701;45.588;5.288;2023-11-19T04:50:49;8.90;99.90
32201;DHT22;18701;45.588;5.288;2023-11-19T04:53:15;9.00;99.90
32201;DHT22;18701;45.588;5.288;2023-11-19T04:55:41;9.00;99.90
32201;DHT22;18701;45.588;5.288;2023-11-19T04:58:07;9.00;99.90
32201;DHT22;18701;45.588;5.288;2023-11-19T05:00:32;8.90;99.90
32201;DHT22;18701;45.588;5.288;2023-11-19T05:02:58;8.90;99.90
32201;DHT22;18701;45.588;5.288;2023-11-19T05:05:24;8.90;99.90
32201;DHT22;18701;45.588;5.288;2023-11-19T05:07:49;9.00;99.90
32201;DHT22;18701;45.588;5.288;2023-11-19T05:10:15;8.90;99.90
32201;DHT22;18701;45.588;5.288;2023-11-19T05:12:40;8.90;99.90
32201;DHT22;18701;45.588;5.288;2023-11-19T05:15:07;8.90;99.90
32201;DHT22;18701;45.588;5.288;2023-11-19T05:17:33;8.90;99.90
32201;DHT22;18701;45.588;5.288;2023-11-19T05:19:59;8.90;99.90
32201;DHT22;18701;45.588;5.288;2023-11-19T05:22:24;9.00;99.90
32201;DHT22;18701;45.588;5.288;2023-11-19T05:24:51;8.90;99.90
32201;DHT22;18701;45.588;5.288;2023-11-19T05:27:17;8.90;99.90
32201;DHT22;18701;45.588;5.288;2023-11-19T05:29:43;8.90;99.90
32201;DHT22;18701;45.588;5.288;2023-11-19T05:32:09;8.90;99.90
32201;DHT22;18701;45.588;5.288;2023-11-19T05:34:35;9.00;99.90
32201;DHT22;18701;45.588;5.288;2023-11-19T05:37:01;9.00;99.90
32201;DHT22;18701;45.588;5.288;2023-11-19T05:39:28;9.00;99.90
32201;DHT22;18701;45.588;5.288;2023-11-19T05:41:53;9.00;99.90
32201;DHT22;18701;45.588;5.288;2023-11-19T05:44:19;9.00;99.90
32201;DHT22;18701;45.588;5.288;2023-11-19T05:46:45;8.90;99.90
32201;DHT22;18701;45.588;5.288;2023-11-19T05:49:11;8.90;99.90
32201;DHT22;18701;45.588;5.288;2023-11-19T05:51:40;8.90;99.90
32201;DHT22;18701;45.588;5.288;2023-11-19T05:54:10;8.90;99.90
32201;DHT22;18701;45.588;5.288;2023-11-19T05:56:36;8.90;99.90
32201;DHT22;18701;45.588;5.288;2023-11-19T05:59:02;8.80;99.90
32201;DHT22;18701;45.588;5.288;2023-11-19T06:01:36;8.90;99.90
32201;DHT22;18701;45.588;5.288;2023-11-19T06:04:02;8.90;99.90
32201;DHT22;18701;45.588;5.288;2023-11-19T06:06:28;8.90;99.90
32201;DHT22;18701;45.588;5.288;2023-11-19T06:08:54;8.90;99.90
32201;DHT22;18701;45.588;5.288;2023-11-19T06:11:20;8.90;99.90
32201;DHT22;18701;45.588;5.288;2023-11-19T06:13:46;8.90;99.90
32201;DHT22;18701;45.588;5.288;2023-11-19T06:16:13;8.90;99.90
32201;DHT22;18701;45.588;5.288;2023-11-19T06:18:39;8.80;99.90
32201;DHT22;18701;45.588;5.288;2023-11-19T06:21:06;8.80;99.90
32201;DHT22;18701;45.588;5.288;2023-11-19T06:23:32;8.70;99.90
32201;DHT22;18701;45.588;5.288;2023-11-19T06:25:58;8.70;99.90
32201;DHT22;18701;45.588;5.288;2023-11-19T06:28:24;8.60;99.90
32201;DHT22;18701;45.588;5.288;2023-11-19T06:30:50;8.50;99.90
32201;DHT22;18701;45.588;5.288;2023-11-19T06:33:15;8.50;99.90
32201;DHT22;18701;45.588;5.288;2023-11-19T06:35:41;8.40;99.90
32201;DHT22;18701;45.588;5.288;2023-11-19T06:38:07;8.50;99.90
32201;DHT22;18701;45.588;5.288;2023-11-19T06:40:33;8.40;99.90
32201;DHT22;18701;45.588;5.288;2023-11-19T06:43:00;8.40;99.90
32201;DHT22;18701;45.588;5.288;2023-11-19T06:45:26;8.40;99.90
32201;DHT22;18701;45.588;5.288;2023-11-19T06:47:53;8.30;99.90
32201;DHT22;18701;45.588;5.288;2023-11-19T06:50:19;8.20;99.90
32201;DHT22;18701;45.588;5.288;2023-11-19T06:52:45;8.30;99.90
32201;DHT22;18701;45.588;5.288;2023-11-19T06:55:10;8.30;99.90
32201;DHT22;18701;45.588;5.288;2023-11-19T06:57:36;8.30;99.90
32201;DHT22;18701;45.588;5.288;2023-11-19T07:00:02;8.30;99.90
32201;DHT22;18701;45.588;5.288;2023-11-19T07:02:28;8.30;99.90
32201;DHT22;18701;45.588;5.288;2023-11-19T07:04:53;8.30;99.90
32201;DHT22;18701;45.588;5.288;2023-11-19T07:07:20;8.20;99.90
32201;DHT22;18701;45.588;5.288;2023-11-19T07:09:45;8.30;99.90
32201;DHT22;18701;45.588;5.288;2023-11-19T07:12:11;8.20;99.90
32201;DHT22;18701;45.588;5.288;2023-11-19T07:14:38;8.20;99.90
32201;DHT22;18701;45.588;5.288;2023-11-19T07:17:04;8.30;99.90
32201;DHT22;18701;45.588;5.288;2023-11-19T07:19:29;8.20;99.90
32201;DHT22;18701;45.588;5.288;2023-11-19T07:21:55;8.30;99.90
32201;DHT22;18701;45.588;5.288;2023-11-19T07:24:21;8.20;99.90
32201;DHT22;18701;45.588;5.288;2023-11-19T07:26:47;8.20;99.90
32201;DHT22;18701;45.588;5.288;2023-11-19T07:29:14;8.20;99.90
32201;DHT22;18701;45.588;5.288;2023-11-19T07:31:42;8.20;99.90
32201;DHT22;18701;45.588;5.288;2023-11-19T07:34:09;8.20;99.90
32201;DHT22;18701;45.588;5.288;2023-11-19T07:36:36;8.30;99.90
32201;DHT22;18701;45.588;5.288;2023-11-19T07:39:02;8.30;99.90
32201;DHT22;18701;45.588;5.288;2023-11-19T07:41:28;8.30;99.90
32201;DHT22;18701;45.588;5.288;2023-11-19T07:43:54;8.30;99.90
32201;DHT22;18701;45.588;5.288;2023-11-19T07:46:20;8.30;99.90
32201;DHT22;18701;45.588;5.288;2023-11-19T07:48:46;8.50;99.90
32201;DHT22;18701;45.588;5.288;2023-11-19T07:51:14;8.60;99.90
32201;DHT22;18701;45.588;5.288;2023-11-19T07:53:40;8.80;99.90
32201;DHT22;18701;45.588;5.288;2023-11-19T07:56:07;9.00;99.90
32201;DHT22;18701;45.588;5.288;2023-11-19T07:58:33;9.10;99.90
32201;DHT22;18701;45.588;5.288;2023-11-19T08:00:58;9.20;99.90
32201;DHT22;18701;45.588;5.288;2023-11-19T08:03:24;9.40;99.90
32201;DHT22;18701;45.588;5.288;2023-11-19T08:05:50;9.60;99.90
32201;DHT22;18701;45.588;5.288;2023-11-19T08:08:16;9.80;99.90
32201;DHT22;18701;45.588;5.288;2023-11-19T08:10:42;9.80;99.90
32201;DHT22;18701;45.588;5.288;2023-11-19T08:13:10;9.80;99.90
32201;DHT22;18701;45.588;5.288;2023-11-19T08:15:35;9.80;99.90
32201;DHT22;18701;45.588;5.288;2023-11-19T08:18:01;9.80;99.90
32201;DHT22;18701;45.588;5.288;2023-11-19T08:20:27;9.80;99.90
32201;DHT22;18701;45.588;5.288;2023-11-19T08:22:53;9.90;99.90
32201;DHT22;18701;45.588;5.288;2023-11-19T08:25:19;9.90;99.90
32201;DHT22;18701;45.588;5.288;2023-11-19T08:27:44;9.90;99.90
32201;DHT22;18701;45.588;5.288;2023-11-19T08:30:10;9.80;99.90
32201;DHT22;18701;45.588;5.288;2023-11-19T08:32:36;9.80;99.90
32201;DHT22;18701;45.588;5.288;2023-11-19T08:35:02;9.80;99.90
32201;DHT22;18701;45.588;5.288;2023-11-19T08:37:28;9.80;99.90
32201;DHT22;18701;45.588;5.288;2023-11-19T08:39:53;9.90;99.90
32201;DHT22;18701;45.588;5.288;2023-11-19T08:42:19;10.10;99.90
32201;DHT22;18701;45.588;5.288;2023-11-19T08:44:49;10.30;99.90
32201;DHT22;18701;45.588;5.288;2023-11-19T08:47:19;10.50;99.90
32201;DHT22;18701;45.588;5.288;2023-11-19T08:49:45;10.70;99.90
32201;DHT22;18701;45.588;5.288;2023-11-19T08:52:10;10.90;99.90
32201;DHT22;18701;45.588;5.288;2023-11-19T08:54:42;11.20;99.90
32201;DHT22;18701;45.588;5.288;2023-11-19T08:57:08;11.30;99.90
32201;DHT22;18701;45.588;5.288;2023-11-19T08:59:34;11.50;99.90
32201;DHT22;18701;45.588;5.288;2023-11-19T09:02:00;11.70;99.90
32201;DHT22;18701;45.588;5.288;2023-11-19T09:04:25;11.90;99.90
32201;DHT22;18701;45.588;5.288;2023-11-19T09:06:51;12.00;99.90
32201;DHT22;18701;45.588;5.288;2023-11-19T09:09:17;12.10;99.90
32201;DHT22;18701;45.588;5.288;2023-11-19T09:11:42;12.30;99.90
32201;DHT22;18701;45.588;5.288;2023-11-19T09:14:08;12.30;99.90
32201;DHT22;18701;45.588;5.288;2023-11-19T09:16:34;12.40;99.90
32201;DHT22;18701;45.588;5.288;2023-11-19T09:19:00;12.40;99.90
32201;DHT22;18701;45.588;5.288;2023-11-19T09:21:26;12.40;99.90
32201;DHT22;18701;45.588;5.288;2023-11-19T09:23:51;12.40;99.90
32201;DHT22;18701;45.588;5.288;2023-11-19T09:26:19;12.40;99.90
32201;DHT22;18701;45.588;5.288;2023-11-19T09:28:44;12.50;99.90
32201;DHT22;18701;45.588;5.288;2023-11-19T09:31:17;12.50;99.90
32201;DHT22;18701;45.588;5.288;2023-11-19T09:33:43;12.60;99.90
32201;DHT22;18701;45.588;5.288;2023-11-19T09:36:11;12.80;99.90
32201;DHT22;18701;45.588;5.288;2023-11-19T09:38:42;12.80;99.90
32201;DHT22;18701;45.588;5.288;2023-11-19T09:41:07;12.80;99.90
32201;DHT22;18701;45.588;5.288;2023-11-19T09:43:35;13.00;99.90
32201;DHT22;18701;45.588;5.288;2023-11-19T09:46:09;13.00;99.90
32201;DHT22;18701;45.588;5.288;2023-11-19T09:48:37;13.00;99.90
32201;DHT22;18701;45.588;5.288;2023-11-19T09:51:04;13.10;99.90
32201;DHT22;18701;45.588;5.288;2023-11-19T09:53:31;13.20;99.90
32201;DHT22;18701;45.588;5.288;2023-11-19T09:56:02;13.20;99.90
32201;DHT22;18701;45.588;5.288;2023-11-19T09:58:29;13.30;99.90
32201;DHT22;18701;45.588;5.288;2023-11-19T10:00:55;13.50;99.90
32201;DHT22;18701;45.588;5.288;2023-11-19T10:03:22;13.80;99.90
32201;DHT22;18701;45.588;5.288;2023-11-19T10:05:48;14.00;99.90
32201;DHT22;18701;45.588;5.288;2023-11-19T10:08:14;14.30;99.90
32201;DHT22;18701;45.588;5.288;2023-11-19T10:10:40;14.40;99.90
32201;DHT22;18701;45.588;5.288;2023-11-19T10:13:05;14.50;99.90
32201;DHT22;18701;45.588;5.288;2023-11-19T10:15:36;14.80;99.90
32201;DHT22;18701;45.588;5.288;2023-11-19T10:18:03;14.90;99.90
32201;DHT22;18701;45.588;5.288;2023-11-19T10:20:36;14.80;99.90
32201;DHT22;18701;45.588;5.288;2023-11-19T10:23:02;14.80;99.90
32201;DHT22;18701;45.588;5.288;2023-11-19T10:25:28;14.60;99.90
32201;DHT22;18701;45.588;5.288;2023-11-19T10:27:55;14.60;99.90
32201;DHT22;18701;45.588;5.288;2023-11-19T10:30:23;14.50;99.90
32201;DHT22;18701;45.588;5.288;2023-11-19T10:33:12;14.40;99.90
32201;DHT22;18701;45.588;5.288;2023-11-19T10:35:55;14.20;99.90
32201;DHT22;18701;45.588;5.288;2023-11-19T10:38:23;14.20;99.90
32201;DHT22;18701;45.588;5.288;2023-11-19T10:40:49;14.30;99.90
32201;DHT22;18701;45.588;5.288;2023-11-19T10:43:16;14.40;99.90
32201;DHT22;18701;45.588;5.288;2023-11-19T10:45:42;14.50;99.90
32201;DHT22;18701;45.588;5.288;2023-11-19T10:48:08;14.50;99.90
32201;DHT22;18701;45.588;5.288;2023-11-19T10:50:35;14.60;99.90
32201;DHT22;18701;45.588;5.288;2023-11-19T10:53:02;14.70;99.90
32201;DHT22;18701;45.588;5.288;2023-11-19T10:55:30;14.80;99.90
32201;DHT22;18701;45.588;5.288;2023-11-19T10:58:03;14.80;99.90
32201;DHT22;18701;45.588;5.288;2023-11-19T11:00:30;14.70;99.90
32201;DHT22;18701;45.588;5.288;2023-11-19T11:03:02;14.80;99.90
32201;DHT22;18701;45.588;5.288;2023-11-19T11:05:32;14.70;99.90
32201;DHT22;18701;45.588;5.288;2023-11-19T11:08:00;14.50;99.90
32201;DHT22;18701;45.588;5.288;2023-11-19T11:10:26;14.50;99.90
32201;DHT22;18701;45.588;5.288;2023-11-19T11:12:54;14.40;99.90
32201;DHT22;18701;45.588;5.288;2023-11-19T11:15:27;14.40;99.90
32201;DHT22;18701;45.588;5.288;2023-11-19T11:17:59;14.40;99.90
32201;DHT22;18701;45.588;5.288;2023-11-19T11:20:33;14.40;99.90
32201;DHT22;18701;45.588;5.288;2023-11-19T11:26:28;14.30;99.90
32201;DHT22;18701;45.588;5.288;2023-11-19T11:34:29;14.20;99.90
32201;DHT22;18701;45.588;5.288;2023-11-19T11:39:46;14.20;99.90
32201;DHT22;18701;45.588;5.288;2023-11-19T11:45:05;14.10;99.90
32201;DHT22;18701;45.588;5.288;2023-11-19T11:50:16;14.20;99.90
32201;DHT22;18701;45.588;5.288;2023-11-19T11:55:52;14.50;99.90
32201;DHT22;18701;45.588;5.288;2023-11-19T11:58:18;14.70;99.90
32201;DHT22;18701;45.588;5.288;2023-11-19T12:00:43;15.20;99.90
32201;DHT22;18701;45.588;5.288;2023-11-19T12:03:11;15.70;99.90
32201;DHT22;18701;45.588;5.288;2023-11-19T12:05:47;15.90;99.90
32201;DHT22;18701;45.588;5.288;2023-11-19T12:08:13;15.60;99.90
32201;DHT22;18701;45.588;5.288;2023-11-19T12:10:48;15.80;99.90
32201;DHT22;18701;45.588;5.288;2023-11-19T12:13:19;15.60;99.90
32201;DHT22;18701;45.588;5.288;2023-11-19T12:18:26;15.50;99.90
32201;DHT22;18701;45.588;5.288;2023-11-19T12:20:52;15.60;99.90
32201;DHT22;18701;45.588;5.288;2023-11-19T12:23:17;15.70;99.90
32201;DHT22;18701;45.588;5.288;2023-11-19T12:25:43;15.80;99.90
32201;DHT22;18701;45.588;5.288;2023-11-19T12:28:15;15.70;99.90
32201;DHT22;18701;45.588;5.288;2023-11-19T12:30:45;15.50;99.90
32201;DHT22;18701;45.588;5.288;2023-11-19T12:33:14;15.40;99.90
32201;DHT22;18701;45.588;5.288;2023-11-19T12:35:44;15.40;99.90
32201;DHT22;18701;45.588;5.288;2023-11-19T12:38:23;15.30;99.90
32201;DHT22;18701;45.588;5.288;2023-11-19T12:41:05;15.30;99.90
32201;DHT22;18701;45.588;5.288;2023-11-19T12:43:31;15.20;99.90
32201;DHT22;18701;45.588;5.288;2023-11-19T12:45:58;15.10;99.90
32201;DHT22;18701;45.588;5.288;2023-11-19T12:48:24;15.00;99.90
32201;DHT22;18701;45.588;5.288;2023-11-19T12:50:57;14.90;99.90
32201;DHT22;18701;45.588;5.288;2023-11-19T12:53:24;14.90;99.90
32201;DHT22;18701;45.588;5.288;2023-11-19T12:55:51;14.80;99.90
32201;DHT22;18701;45.588;5.288;2023-11-19T13:01:04;14.80;99.90
32201;DHT22;18701;45.588;5.288;2023-11-19T13:03:35;14.70;99.90
32201;DHT22;18701;45.588;5.288;2023-11-19T13:06:13;14.60;99.90
32201;DHT22;18701;45.588;5.288;2023-11-19T13:08:45;14.60;99.90
32201;DHT22;18701;45.588;5.288;2023-11-19T13:11:12;14.60;99.90
32201;DHT22;18701;45.588;5.288;2023-11-19T13:13:58;14.50;99.90
32201;DHT22;18701;45.588;5.288;2023-11-19T13:16:25;14.50;99.90
32201;DHT22;18701;45.588;5.288;2023-11-19T13:18:51;14.50;99.90
32201;DHT22;18701;45.588;5.288;2023-11-19T13:21:17;14.50;99.90
32201;DHT22;18701;45.588;5.288;2023-11-19T13:23:43;14.50;99.90
32201;DHT22;18701;45.588;5.288;2023-11-19T13:26:09;14.50;99.90
32201;DHT22;18701;45.588;5.288;2023-11-19T13:28:35;14.40;99.90
32201;DHT22;18701;45.588;5.288;2023-11-19T13:31:00;14.40;99.90
32201;DHT22;18701;45.588;5.288;2023-11-19T13:33:26;14.50;99.90
32201;DHT22;18701;45.588;5.288;2023-11-19T13:35:52;14.50;99.90
32201;DHT22;18701;45.588;5.288;2023-11-19T13:38:18;14.50;99.90
32201;DHT22;18701;45.588;5.288;2023-11-19T13:40:44;14.60;99.90
32201;DHT22;18701;45.588;5.288;2023-11-19T13:43:09;14.60;99.90
32201;DHT22;18701;45.588;5.288;2023-11-19T13:45:35;14.60;99.90
32201;DHT22;18701;45.588;5.288;2023-11-19T13:48:00;14.60;99.90
32201;DHT22;18701;45.588;5.288;2023-11-19T13:50:26;14.70;99.90
32201;DHT22;18701;45.588;5.288;2023-11-19T13:52:54;14.60;99.90
32201;DHT22;18701;45.588;5.288;2023-11-19T13:55:20;14.60;99.90
32201;DHT22;18701;45.588;5.288;2023-11-19T13:57:45;14.60;99.90
32201;DHT22;18701;45.588;5.288;2023-11-19T14:00:12;14.60;99.90
32201;DHT22;18701;45.588;5.288;2023-11-19T14:02:41;14.60;99.90
32201;DHT22;18701;45.588;5.288;2023-11-19T14:05:08;14.60;99.90
32201;DHT22;18701;45.588;5.288;2023-11-19T14:07:33;14.60;99.90
32201;DHT22;18701;45.588;5.288;2023-11-19T14:09:59;14.60;99.90
32201;DHT22;18701;45.588;5.288;2023-11-19T14:12:25;14.60;99.90
32201;DHT22;18701;45.588;5.288;2023-11-19T14:14:50;14.60;99.90
32201;DHT22;18701;45.588;5.288;2023-11-19T14:17:16;14.60;99.90
32201;DHT22;18701;45.588;5.288;2023-11-19T14:19:42;14.60;99.90
32201;DHT22;18701;45.588;5.288;2023-11-19T14:22:08;14.60;99.90
32201;DHT22;18701;45.588;5.288;2023-11-19T14:24:34;14.60;99.90
32201;DHT22;18701;45.588;5.288;2023-11-19T14:27:00;14.60;99.90
32201;DHT22;18701;45.588;5.288;2023-11-19T14:29:26;14.60;99.90
32201;DHT22;18701;45.588;5.288;2023-11-19T14:31:52;14.60;99.90
32201;DHT22;18701;45.588;5.288;2023-11-19T14:34:21;14.60;99.90
32201;DHT22;18701;45.588;5.288;2023-11-19T14:36:46;14.60;99.90
32201;DHT22;18701;45.588;5.288;2023-11-19T14:39:13;14.50;99.90
32201;DHT22;18701;45.588;5.288;2023-11-19T14:41:38;14.40;99.90
32201;DHT22;18701;45.588;5.288;2023-11-19T14:44:04;14.50;99.90
32201;DHT22;18701;45.588;5.288;2023-11-19T14:46:31;14.40;99.90
32201;DHT22;18701;45.588;5.288;2023-11-19T14:48:56;14.50;99.90
32201;DHT22;18701;45.588;5.288;2023-11-19T14:51:22;14.40;99.90
32201;DHT22;18701;45.588;5.288;2023-11-19T14:53:47;14.40;99.90
32201;DHT22;18701;45.588;5.288;2023-11-19T14:56:13;14.40;99.90
32201;DHT22;18701;45.588;5.288;2023-11-19T14:58:39;14.40;99.90
32201;DHT22;18701;45.588;5.288;2023-11-19T15:01:05;14.30;99.90
32201;DHT22;18701;45.588;5.288;2023-11-19T15:03:32;14.40;99.90
32201;DHT22;18701;45.588;5.288;2023-11-19T15:05:58;14.40;99.90
32201;DHT22;18701;45.588;5.288;2023-11-19T15:08:24;14.50;99.90
32201;DHT22;18701;45.588;5.288;2023-11-19T15:10:50;14.50;99.90
32201;DHT22;18701;45.588;5.288;2023-11-19T15:13:16;14.50;99.90
32201;DHT22;18701;45.588;5.288;2023-11-19T15:15:41;14.50;99.90
32201;DHT22;18701;45.588;5.288;2023-11-19T15:18:07;14.50;99.90
32201;DHT22;18701;45.588;5.288;2023-11-19T15:20:33;14.40;99.90
32201;DHT22;18701;45.588;5.288;2023-11-19T15:22:58;14.40;99.90
32201;DHT22;18701;45.588;5.288;2023-11-19T15:25:24;14.40;99.90
32201;DHT22;18701;45.588;5.288;2023-11-19T15:27:50;14.40;99.90
32201;DHT22;18701;45.588;5.288;2023-11-19T15:30:16;14.40;99.90
32201;DHT22;18701;45.588;5.288;2023-11-19T15:32:42;14.30;99.90
32201;DHT22;18701;45.588;5.288;2023-11-19T15:35:09;14.30;99.90
32201;DHT22;18701;45.588;5.288;2023-11-19T15:37:38;14.20;99.90
32201;DHT22;18701;45.588;5.288;2023-11-19T15:40:06;14.20;99.90
32201;DHT22;18701;45.588;5.288;2023-11-19T15:42:34;14.20;99.90
32201;DHT22;18701;45.588;5.288;2023-11-19T15:44:59;14.10;99.90
32201;DHT22;18701;45.588;5.288;2023-11-19T15:47:25;14.00;99.90
32201;DHT22;18701;45.588;5.288;2023-11-19T15:49:51;14.00;99.90
32201;DHT22;18701;45.588;5.288;2023-11-19T15:52:16;14.00;99.90
32201;DHT22;18701;45.588;5.288;2023-11-19T15:54:42;14.00;99.90
32201;DHT22;18701;45.588;5.288;2023-11-19T15:57:08;13.90;99.90
32201;DHT22;18701;45.588;5.288;2023-11-19T15:59:33;13.90;99.90
32201;DHT22;18701;45.588;5.288;2023-11-19T16:01:59;13.90;99.90
32201;DHT22;18701;45.588;5.288;2023-11-19T16:04:25;13.90;99.90